Time;durP1;ratioP1;P1;durP2;ratioP2;P2;SDS_P1;SDS_P2;PMS_P1;PMS_P2;Temp;Humidity;BMP_temperature;BMP_pressure;BME280_temperature;BME280_humidity;BME280_pressure;Samples;Min_cycle;Max_cycle;Signal;HPM_P1;HPM_P2
2022/09/05 00:00:11;;;;;;;6.03;2.70;;;;;;;17.31;69.57;101933.50;5017107;28;20455;-70
2022/09/05 00:02:46;;;;;;;4.97;2.30;;;;;;;17.27;69.59;101922.38;5017049;28;20440;-72
2022/09/05 00:05:38;;;;;;;6.90;2.40;;;;;;;17.22;68.93;101918.94;5016714;28;20431;-72
2022/09/05 00:08:12;;;;;;;6.10;2.40;;;;;;;17.24;68.87;101919.47;5016956;28;20459;-72
2022/09/05 00:10:44;;;;;;;7.93;2.20;;;;;;;17.21;69.44;101918.13;5016948;28;20439;-72
2022/09/05 00:13:17;;;;;;;6.93;2.73;;;;;;;17.22;69.38;101914.31;5016870;28;20479;-72
2022/09/05 00:15:58;;;;;;;5.80;2.70;;;;;;;17.20;69.06;101922.00;5016801;28;20425;-72
2022/09/05 00:18:39;;;;;;;5.20;2.70;;;;;;;17.23;69.03;101920.59;5016762;28;20472;-72
2022/09/05 00:21:21;;;;;;;5.20;2.37;;;;;;;17.21;67.90;101917.34;5016780;28;20436;-73
2022/09/05 00:24:03;;;;;;;4.33;2.13;;;;;;;17.26;67.96;101915.25;5016379;28;20906;-73
2022/09/05 00:26:44;;;;;;;4.63;2.23;;;;;;;17.31;68.31;101915.16;5016597;28;20439;-73
2022/09/05 00:29:23;;;;;;;5.97;2.50;;;;;;;17.31;68.75;101915.16;5016825;28;20853;-73
2022/09/05 00:32:00;;;;;;;5.43;2.83;;;;;;;17.29;68.55;101917.38;5016566;28;20478;-73
2022/09/05 00:34:44;;;;;;;4.97;2.23;;;;;;;17.31;68.67;101917.06;5016211;28;20432;-73
2022/09/05 00:37:12;;;;;;;5.33;2.40;;;;;;;17.29;68.17;101913.84;5016413;28;20491;-73
2022/09/05 00:39:41;;;;;;;5.00;2.50;;;;;;;17.28;68.11;101915.78;5016073;28;20450;-73
2022/09/05 00:42:12;;;;;;;6.27;3.03;;;;;;;17.27;67.87;101916.91;5016317;28;20444;-73
2022/09/05 00:44:49;;;;;;;5.57;2.50;;;;;;;17.28;68.83;101912.22;5016403;28;20776;-73
2022/09/05 00:47:26;;;;;;;5.10;2.17;;;;;;;17.29;68.74;101913.84;5016190;28;20463;-73
2022/09/05 00:49:59;;;;;;;5.47;2.43;;;;;;;17.27;67.30;101919.66;5016206;28;20443;-73
2022/09/05 00:52:34;;;;;;;6.30;2.60;;;;;;;17.25;67.70;101924.59;5015835;28;20468;-73
2022/09/05 00:55:13;;;;;;;9.17;3.30;;;;;;;17.26;67.82;101931.69;5015855;28;20435;-73
2022/09/05 00:57:55;;;;;;;5.70;2.53;;;;;;;17.26;67.72;101937.19;5015626;28;20483;-73
2022/09/05 01:00:23;;;;;;;6.10;2.40;;;;;;;17.23;67.42;101937.81;5015811;28;20454;-75
2022/09/05 01:03:30;;;;;;;4.87;2.27;;;;;;;17.22;67.90;101930.72;5015665;28;20436;-75
2022/09/05 01:06:10;;;;;;;5.43;2.57;;;;;;;17.21;68.31;101937.31;4936013;29;20844;-75
2022/09/05 01:08:54;;;;;;;5.53;2.20;;;;;;;17.17;68.22;101938.25;4936010;29;20898;-75
2022/09/05 01:11:37;;;;;;;5.50;2.50;;;;;;;17.19;68.14;101933.28;4936106;29;20452;-75
2022/09/05 01:14:16;;;;;;;5.73;2.63;;;;;;;17.15;67.97;101939.38;4936010;29;20846;-75
2022/09/05 01:17:02;;;;;;;5.70;2.43;;;;;;;17.13;67.31;101938.88;4935830;29;20463;-74
2022/09/05 01:19:41;;;;;;;4.73;2.50;;;;;;;17.13;68.23;101938.88;4935915;29;20446;-74
2022/09/05 01:22:30;;;;;;;6.73;2.90;;;;;;;17.13;67.22;101936.16;4936274;29;20435;-74
2022/09/05 01:25:18;;;;;;;6.70;2.23;;;;;;;17.14;67.64;101942.44;4935851;29;20889;-75
2022/09/05 01:28:00;;;;;;;6.23;2.70;;;;;;;17.14;67.72;101945.16;4935697;29;20471;-75
2022/09/05 01:30:35;;;;;;;3.80;1.90;;;;;;;17.15;68.17;101944.03;4935834;29;20452;-74
2022/09/05 01:33:11;;;;;;;6.87;3.23;;;;;;;17.17;67.58;101947.25;4935668;29;20471;-75
2022/09/05 01:35:58;;;;;;;6.40;2.87;;;;;;;17.17;68.71;101946.47;4938367;28;20856;-75
2022/09/05 01:38:33;;;;;;;5.03;2.33;;;;;;;17.20;68.37;101948.59;5015238;28;20467;-75
2022/09/05 01:41:10;;;;;;;5.20;2.30;;;;;;;17.18;67.89;101942.59;5015006;28;20963;-74
2022/09/05 01:44:05;;;;;;;4.90;2.43;;;;;;;17.16;68.28;101948.41;5015201;28;20420;-75
2022/09/05 01:46:39;;;;;;;4.60;2.20;;;;;;;17.18;68.61;101942.59;5012552;28;20539;-75
2022/09/05 01:49:14;;;;;;;8.27;2.70;;;;;;;17.17;68.15;101951.94;5015244;28;20443;-75
2022/09/05 01:52:18;;;;;;;5.60;2.80;;;;;;;17.17;68.43;101955.47;5015089;28;20894;-71
2022/09/05 01:54:56;;;;;;;5.83;2.70;;;;;;;17.20;68.08;101965.00;5014835;28;21019;-72
2022/09/05 01:57:34;;;;;;;11.00;2.80;;;;;;;17.20;68.42;101965.81;5014639;28;20476;-71
2022/09/05 02:00:11;;;;;;;5.27;2.40;;;;;;;17.19;68.40;101969.69;5014508;28;20906;-71
2022/09/05 02:02:55;;;;;;;6.03;2.13;;;;;;;17.23;68.64;101964.41;5014676;28;20431;-71
2022/09/05 02:05:51;;;;;;;4.60;2.00;;;;;;;17.22;68.12;101962.75;5014647;28;20432;-71
2022/09/05 02:08:34;;;;;;;6.03;3.10;;;;;;;17.19;68.47;101966.16;5014636;28;20460;-72
2022/09/05 02:11:06;;;;;;;7.03;2.70;;;;;;;17.17;68.45;101977.38;5014449;28;20858;-71
2022/09/05 02:13:56;;;;;;;6.00;2.57;;;;;;;17.06;69.05;101962.34;5013936;28;20522;-72
2022/09/05 02:16:32;;;;;;;7.77;3.50;;;;;;;17.05;69.19;101963.47;5014505;28;20424;-71
2022/09/05 02:19:06;;;;;;;5.60;2.67;;;;;;;17.07;69.74;101970.25;5014583;28;20471;-71
2022/09/05 02:21:41;;;;;;;8.17;3.00;;;;;;;17.00;69.78;101967.16;5014503;28;20541;-72
2022/09/05 02:24:14;;;;;;;5.67;3.20;;;;;;;16.97;69.62;101972.41;5014632;28;20450;-71
2022/09/05 02:26:53;;;;;;;7.00;3.30;;;;;;;16.94;69.93;101970.28;5014283;28;20464;-72
2022/09/05 02:29:26;;;;;;;7.90;3.13;;;;;;;16.90;70.75;101968.16;5015656;28;20416;-74
2022/09/05 02:31:58;;;;;;;5.10;2.70;;;;;;;16.88;70.14;101972.34;5014293;28;20432;-74
2022/09/05 02:34:34;;;;;;;5.40;2.50;;;;;;;16.85;70.18;101975.69;5014201;28;20468;-74
2022/09/05 02:37:08;;;;;;;5.50;2.87;;;;;;;16.80;70.58;101973.88;5013950;28;20517;-74
2022/09/05 02:39:40;;;;;;;9.87;3.40;;;;;;;16.80;70.32;101967.59;5014212;28;20487;-75
2022/09/05 02:42:17;;;;;;;6.17;2.60;;;;;;;16.76;71.20;101972.88;5014114;28;20467;-75
2022/09/05 02:44:58;;;;;;;5.60;3.03;;;;;;;16.63;71.13;101974.50;5014144;28;20844;-74
2022/09/05 02:47:31;;;;;;;5.57;2.60;;;;;;;16.65;71.69;101966.81;5014007;28;20460;-74
2022/09/05 02:50:10;;;;;;;5.83;2.93;;;;;;;16.67;71.97;101980.19;5014102;28;20436;-74
2022/09/05 02:52:41;;;;;;;5.90;3.03;;;;;;;16.62;71.74;101974.81;5013800;28;20525;-74
2022/09/05 02:55:23;;;;;;;5.43;3.10;;;;;;;16.54;72.35;101979.09;5014097;28;20439;-74
2022/09/05 02:58:04;;;;;;;5.63;2.90;;;;;;;16.59;72.39;101976.22;5013555;28;20579;-75
2022/09/05 03:00:38;;;;;;;6.17;2.93;;;;;;;16.57;72.91;101974.94;5013869;28;20479;-76
2022/09/05 03:03:19;;;;;;;6.00;2.70;;;;;;;16.50;72.22;101980.81;5013575;28;20811;-73
2022/09/05 03:05:53;;;;;;;5.33;2.83;;;;;;;16.45;73.36;101975.47;5013827;28;20804;-75
2022/09/05 03:08:30;;;;;;;5.80;3.07;;;;;;;16.39;73.60;101979.44;5013749;28;20464;-73
2022/09/05 03:11:30;;;;;;;8.40;3.20;;;;;;;16.34;73.96;101966.69;5013685;28;20424;-72
2022/09/05 03:14:31;;;;;;;5.50;2.47;;;;;;;16.30;74.82;101967.59;5013267;28;20493;-72
2022/09/05 03:17:37;;;;;;;9.30;3.17;;;;;;;16.22;74.91;101969.13;5013589;28;20466;-72
2022/09/05 03:20:25;;;;;;;7.90;2.93;;;;;;;16.24;74.58;101963.31;5013664;28;20424;-72
2022/09/05 03:23:17;;;;;;;7.77;2.90;;;;;;;16.15;74.86;101963.22;5013577;28;20421;-72
2022/09/05 03:26:25;;;;;;;5.60;2.70;;;;;;;16.05;75.62;101955.25;5013502;28;20428;-72
2022/09/05 03:29:27;;;;;;;6.57;3.13;;;;;;;15.98;75.56;101957.56;5013554;28;20437;-72
2022/09/05 03:32:29;;;;;;;5.83;3.23;;;;;;;15.89;76.18;101961.03;5013527;28;20439;-72
2022/09/05 03:35:45;;;;;;;6.00;2.77;;;;;;;15.80;76.80;101957.34;5013070;28;20534;-72
2022/09/05 03:38:39;;;;;;;7.87;3.20;;;;;;;15.81;78.02;101964.47;5013819;28;20839;-72
2022/09/05 03:41:17;;;;;;;6.87;3.40;;;;;;;15.76;77.97;101955.53;5013096;28;20964;-72
2022/09/05 03:44:09;;;;;;;6.03;2.87;;;;;;;15.74;77.30;101957.75;5013421;28;20439;-73
2022/09/05 03:46:53;;;;;;;8.00;3.77;;;;;;;15.76;76.50;101959.09;5013263;28;20464;-72
2022/09/05 03:49:45;;;;;;;7.57;3.50;;;;;;;15.73;77.19;101956.97;5013432;28;20435;-72
2022/09/05 03:52:23;;;;;;;6.90;3.27;;;;;;;15.70;77.11;101954.81;5002644;28;20460;-72
2022/09/05 03:55:12;;;;;;;8.33;3.60;;;;;;;15.65;77.07;101952.19;5013216;28;20843;-71
2022/09/05 03:58:00;;;;;;;6.47;2.60;;;;;;;15.60;77.27;101952.25;5012929;28;20526;-72
2022/09/05 04:00:32;;;;;;;7.03;3.00;;;;;;;15.58;77.98;101952.56;5013221;28;20440;-72
2022/09/05 04:03:05;;;;;;;7.97;3.30;;;;;;;15.55;77.53;101955.09;5012948;28;20432;-72
2022/09/05 04:05:38;;;;;;;7.17;2.87;;;;;;;15.56;77.54;101951.22;5012876;28;20428;-72
2022/09/05 04:08:13;;;;;;;5.70;2.90;;;;;;;15.55;78.11;101955.09;5013069;28;20468;-72
2022/09/05 04:10:49;;;;;;;8.17;3.27;;;;;;;15.54;77.46;101964.41;5013095;28;20443;-72
2022/09/05 04:13:20;;;;;;;7.30;3.10;;;;;;;15.56;77.57;101959.44;5013106;28;20529;-72
2022/09/05 04:15:59;;;;;;;7.63;3.00;;;;;;;15.54;77.54;101950.75;5013048;28;20435;-73
2022/09/05 04:18:33;;;;;;;5.83;2.20;;;;;;;15.57;77.04;101955.59;5012948;28;20471;-72
2022/09/05 04:21:06;;;;;;;6.67;2.77;;;;;;;15.56;77.03;101948.50;5013028;28;20780;-72
2022/09/05 04:23:45;;;;;;;8.80;3.97;;;;;;;15.58;77.11;101955.31;5013015;28;20431;-72
2022/09/05 04:26:30;;;;;;;9.70;3.07;;;;;;;15.58;77.46;101966.22;5012999;28;20428;-72
2022/09/05 04:29:08;;;;;;;8.83;3.30;;;;;;;15.59;77.17;101956.09;5012907;28;20504;-72
2022/09/05 04:31:44;;;;;;;8.40;2.77;;;;;;;15.61;77.68;101962.88;5012664;28;20504;-75
2022/09/05 04:34:29;;;;;;;7.00;3.20;;;;;;;15.61;77.56;101962.06;5012854;28;20474;-74
2022/09/05 04:37:01;;;;;;;6.53;3.00;;;;;;;15.61;77.39;101964.78;5014407;28;20474;-75
2022/09/05 04:39:30;;;;;;;5.60;2.53;;;;;;;15.66;76.53;101962.00;5016385;28;20452;-74
2022/09/05 04:42:10;;;;;;;7.40;2.50;;;;;;;15.68;76.75;101969.91;5016241;28;20493;-73
2022/09/05 04:44:43;;;;;;;5.40;3.00;;;;;;;15.67;76.90;101966.38;5016378;28;20443;-74
2022/09/05 04:47:15;;;;;;;5.67;2.80;;;;;;;15.67;77.23;101973.72;5016313;28;20466;-73
2022/09/05 04:49:45;;;;;;;4.47;2.10;;;;;;;15.71;76.64;101981.03;5016232;28;20440;-74
2022/09/05 04:53:02;;;;;;;6.83;2.33;;;;;;;15.74;77.07;101977.69;5016201;28;20842;-72
2022/09/05 04:55:37;;;;;;;6.27;2.93;;;;;;;15.78;77.49;101981.44;4936358;29;20833;-72
2022/09/05 04:58:10;;;;;;;6.97;2.90;;;;;;;15.76;77.75;101975.50;4936013;29;21133;-72
2022/09/05 05:00:42;;;;;;;6.63;3.40;;;;;;;15.80;77.80;101979.22;4936231;29;20448;-72
2022/09/05 05:03:14;;;;;;;5.40;2.67;;;;;;;15.81;77.25;101980.84;4936202;29;20431;-72
2022/09/05 05:05:56;;;;;;;5.97;2.67;;;;;;;15.80;77.42;101979.22;4936218;29;20432;-72
2022/09/05 05:08:28;;;;;;;6.20;2.33;;;;;;;15.85;77.12;101984.59;4935933;29;20467;-71
2022/09/05 05:11:01;;;;;;;7.40;2.57;;;;;;;15.93;77.59;101994.00;4935957;29;20428;-72
2022/09/05 05:13:35;;;;;;;8.47;3.23;;;;;;;15.97;77.72;101994.22;4935974;29;20854;-72
2022/09/05 05:16:06;;;;;;;11.23;2.47;;;;;;;16.02;77.20;101996.84;4935980;29;20438;-72
2022/09/05 05:18:36;;;;;;;4.80;2.27;;;;;;;16.04;77.53;101992.72;4935823;29;20472;-72
2022/09/05 05:21:05;;;;;;;6.10;2.17;;;;;;;16.08;77.35;101991.00;4935883;29;20447;-72
2022/09/05 05:23:37;;;;;;;4.73;2.30;;;;;;;16.13;77.24;101996.34;4935879;29;20440;-72
2022/09/05 05:26:08;;;;;;;7.23;2.63;;;;;;;16.19;77.17;101988.03;4973814;28;20451;-72
2022/09/05 05:28:50;;;;;;;6.20;2.23;;;;;;;16.22;77.07;101999.19;5015514;28;20475;-73
2022/09/05 05:31:21;;;;;;;5.73;2.53;;;;;;;16.22;76.52;102001.91;5015445;28;20424;-73
2022/09/05 05:33:50;;;;;;;8.93;2.83;;;;;;;16.19;76.95;101997.06;5015352;28;20479;-73
2022/09/05 05:36:22;;;;;;;10.13;2.67;;;;;;;16.25;77.00;102000.50;5015311;28;20830;-73
2022/09/05 05:38:52;;;;;;;5.40;2.43;;;;;;;16.27;77.07;102009.22;5015473;28;20440;-74
2022/09/05 05:41:25;;;;;;;8.43;2.30;;;;;;;16.32;76.74;102007.16;5015345;28;20440;-74
2022/09/05 05:43:52;;;;;;;5.40;2.60;;;;;;;16.34;76.57;102006.88;5014983;28;20431;-73
2022/09/05 05:46:29;;;;;;;5.00;2.17;;;;;;;16.35;76.31;102006.56;5015223;28;20439;-72
2022/09/05 05:49:08;;;;;;;5.30;2.60;;;;;;;16.42;76.30;102003.41;5014274;28;20451;-75
2022/09/05 05:51:43;;;;;;;6.23;2.57;;;;;;;16.49;75.83;102003.00;5014801;28;20432;-74
2022/09/05 05:54:23;;;;;;;6.30;3.00;;;;;;;16.55;76.63;102010.78;5015138;28;20478;-74
2022/09/05 05:57:21;;;;;;;4.17;2.20;;;;;;;16.56;75.64;102012.44;5015088;28;20499;-75
2022/09/05 06:00:00;;;;;;;7.13;2.73;;;;;;;16.56;75.32;102011.63;5015008;28;20444;-76
2022/09/05 06:03:07;;;;;;;4.60;2.00;;;;;;;16.60;74.51;102007.13;5014973;28;20436;-76
2022/09/05 06:05:45;;;;;;;6.77;2.07;;;;;;;16.69;74.20;102010.78;5014943;28;20515;-74
2022/09/05 06:08:44;;;;;;;7.23;2.57;;;;;;;16.78;73.83;101999.97;5014510;28;20848;-75
2022/09/05 06:11:45;;;;;;;5.60;2.10;;;;;;;16.87;74.85;102017.28;5014732;28;20428;-75
2022/09/05 06:15:05;;;;;;;4.53;2.30;;;;;;;16.90;73.50;102011.97;5014666;28;20468;-74
2022/09/05 06:18:13;;;;;;;4.57;2.20;;;;;;;17.00;72.44;102013.69;4943153;28;20475;-74
2022/09/05 06:21:00;;;;;;;6.97;2.50;;;;;;;17.13;71.57;102020.19;5014569;28;20435;-74
2022/09/05 06:23:57;;;;;;;5.10;2.30;;;;;;;17.23;72.79;102019.16;5014508;28;20793;-74
2022/09/05 06:27:03;;;;;;;4.50;2.00;;;;;;;17.31;72.84;102023.88;5014070;28;20926;-74
2022/09/05 06:29:41;;;;;;;4.83;1.63;;;;;;;17.37;72.83;102020.72;4934458;29;20862;-74
2022/09/05 06:32:23;;;;;;;4.97;2.33;;;;;;;17.48;72.92;102023.19;5006876;28;20455;-76
2022/09/05 06:35:27;;;;;;;7.63;2.20;;;;;;;17.62;73.06;102021.22;5014262;28;20468;-76
2022/09/05 06:38:03;;;;;;;4.27;2.10;;;;;;;17.72;71.28;102031.09;4982970;28;20487;-76
2022/09/05 06:40:38;;;;;;;5.60;2.20;;;;;;;17.80;71.51;102030.38;5014231;28;20428;-75
2022/09/05 06:43:17;;;;;;;3.70;1.73;;;;;;;17.83;70.32;102041.50;5013853;28;20438;-76
2022/09/05 06:46:02;;;;;;;6.10;2.67;;;;;;;17.90;69.06;102035.56;5014265;28;20428;-75
2022/09/05 06:48:39;;;;;;;4.70;1.93;;;;;;;17.96;70.24;102034.31;5014118;28;20464;-75
2022/09/05 06:51:36;;;;;;;4.13;1.80;;;;;;;18.03;70.92;102039.34;5014207;28;20437;-75
2022/09/05 06:54:17;;;;;;;5.20;1.87;;;;;;;18.15;71.38;102045.84;5013916;28;20472;-76
2022/09/05 06:57:02;;;;;;;5.10;2.00;;;;;;;18.20;70.36;102044.91;5013678;28;20507;-75
2022/09/05 07:00:09;;;;;;;5.80;2.60;;;;;;;18.26;70.76;102051.84;5013749;28;20428;-76
2022/09/05 07:02:41;;;;;;;7.50;2.57;;;;;;;18.30;72.14;102046.56;5013773;28;20615;-74
2022/09/05 07:05:19;;;;;;;7.30;2.10;;;;;;;18.30;70.21;102044.63;5014140;28;20429;-73
2022/09/05 07:07:53;;;;;;;5.50;2.03;;;;;;;18.40;70.89;102049.00;5013739;28;20467;-72
2022/09/05 07:10:27;;;;;;;6.00;2.10;;;;;;;18.46;72.65;102049.66;5013973;28;20468;-75
2022/09/05 07:13:02;;;;;;;5.07;2.00;;;;;;;18.52;73.55;102053.88;5013487;28;20906;-75
2022/09/05 07:15:39;;;;;;;5.33;2.60;;;;;;;18.53;72.63;102045.31;5013598;28;20482;-75
2022/09/05 07:18:13;;;;;;;4.13;1.90;;;;;;;18.62;70.80;102048.09;5013653;28;20474;-74
2022/09/05 07:20:49;;;;;;;5.17;2.37;;;;;;;18.69;70.94;102053.13;5013296;28;20845;-76
2022/09/05 07:23:35;;;;;;;6.10;2.60;;;;;;;18.79;72.36;102056.38;5013791;28;20432;-73
2022/09/05 07:26:03;;;;;;;5.50;2.00;;;;;;;18.80;71.42;102052.50;5014425;28;20531;-75
2022/09/05 07:28:31;;;;;;;4.70;1.83;;;;;;;18.88;71.25;102051.72;5013893;28;21003;-74
2022/09/05 07:31:02;;;;;;;7.40;2.00;;;;;;;18.88;71.36;102051.72;5013848;28;20447;-74
2022/09/05 07:33:30;;;;;;;5.63;2.20;;;;;;;18.94;70.84;102043.31;5014423;28;20490;-74
2022/09/05 07:36:05;;;;;;;7.40;2.43;;;;;;;19.00;70.53;102064.03;5014241;28;20448;-74
2022/09/05 07:38:37;;;;;;;5.20;2.23;;;;;;;19.10;71.20;102060.94;5014081;28;20480;-74
2022/09/05 07:41:10;;;;;;;6.10;2.27;;;;;;;19.17;72.54;102058.53;5013154;28;20519;-74
2022/09/05 07:43:39;;;;;;;7.93;2.47;;;;;;;19.18;72.20;102056.59;5013101;28;20909;-74
2022/09/05 07:46:27;;;;;;;4.70;1.97;;;;;;;19.19;71.57;102064.50;5013394;28;20452;-74
2022/09/05 07:48:59;;;;;;;4.37;2.17;;;;;;;19.21;70.56;102058.69;5013811;28;20436;-75
2022/09/05 07:51:29;;;;;;;4.20;1.90;;;;;;;19.26;71.14;102059.34;5014038;28;20911;-76
2022/09/05 07:54:01;;;;;;;5.60;2.37;;;;;;;19.26;70.52;102061.28;5013774;28;20440;-74
2022/09/05 07:56:42;;;;;;;5.10;2.03;;;;;;;19.29;69.63;102061.41;5013462;28;20458;-75
2022/09/05 07:59:12;;;;;;;4.23;1.47;;;;;;;19.32;68.20;102060.78;5013761;28;20472;-75
2022/09/05 08:01:42;;;;;;;5.07;2.30;;;;;;;19.41;67.14;102053.34;5013970;28;20448;-74
2022/09/05 08:04:22;;;;;;;5.63;2.20;;;;;;;19.46;69.20;102057.06;5013928;28;20430;-73
2022/09/05 08:06:51;;;;;;;5.07;2.40;;;;;;;19.57;68.91;102064.66;5013563;28;20502;-74
2022/09/05 08:09:25;;;;;;;4.30;2.03;;;;;;;19.57;68.99;102064.66;5013846;28;20457;-74
2022/09/05 08:11:56;;;;;;;3.93;1.67;;;;;;;19.58;67.50;102057.19;5015196;28;20467;-74
2022/09/05 08:14:41;;;;;;;4.80;2.33;;;;;;;19.56;69.22;102065.75;5017547;28;20483;-73
2022/09/05 08:17:13;;;;;;;7.70;2.07;;;;;;;19.51;68.54;102059.63;5017282;28;20460;-74
2022/09/05 08:19:54;;;;;;;4.80;2.20;;;;;;;19.63;69.15;102060.63;5018081;28;20438;-74
2022/09/05 08:22:23;;;;;;;5.03;1.97;;;;;;;19.65;71.36;102063.81;5018403;28;20435;-75
2022/09/05 08:25:00;;;;;;;4.10;2.07;;;;;;;19.76;70.55;102064.31;5017978;28;20810;-73
2022/09/05 08:27:31;;;;;;;7.07;2.60;;;;;;;19.80;70.29;102069.97;5017888;28;20500;-74
2022/09/05 08:30:05;;;;;;;6.40;2.97;;;;;;;19.82;68.78;102064.94;5017782;28;20424;-74
2022/09/05 08:32:40;;;;;;;3.80;1.83;;;;;;;19.92;67.79;102061.81;5017471;28;21036;-75
2022/09/05 08:35:14;;;;;;;6.63;2.13;;;;;;;19.96;68.36;102051.78;5018096;28;20526;-75
2022/09/05 08:37:43;;;;;;;5.00;2.27;;;;;;;19.98;69.79;102054.22;5016269;28;20941;-73
2022/09/05 08:40:24;;;;;;;6.37;2.67;;;;;;;20.06;66.40;102051.44;5018320;28;20459;-74
2022/09/05 08:42:59;;;;;;;6.70;2.80;;;;;;;20.18;66.83;102042.47;5018158;28;20432;-74
2022/09/05 08:45:34;;;;;;;5.37;2.50;;;;;;;20.20;66.17;102042.97;5016740;28;20845;-75
2022/09/05 08:48:12;;;;;;;4.80;2.37;;;;;;;20.25;65.42;102037.28;5016811;28;21011;-75
2022/09/05 08:51:08;;;;;;;5.13;2.30;;;;;;;20.33;65.58;102039.19;5018614;28;20451;-75
2022/09/05 08:53:53;;;;;;;4.90;2.17;;;;;;;20.40;66.60;102033.13;5012707;28;20502;-75
2022/09/05 08:56:23;;;;;;;5.10;2.17;;;;;;;20.39;66.63;102037.03;5016028;28;20521;-72
2022/09/05 08:58:58;;;;;;;8.10;2.53;;;;;;;20.50;66.05;102032.81;5016061;28;20784;-74
2022/09/05 09:01:32;;;;;;;7.17;2.60;;;;;;;20.52;65.67;102026.97;5015902;28;20428;-74
2022/09/05 09:04:18;;;;;;;6.83;2.90;;;;;;;20.63;65.42;102025.44;5015844;28;20718;-75
2022/09/05 09:06:58;;;;;;;5.17;2.50;;;;;;;20.66;64.63;102013.75;5015810;28;20523;-74
2022/09/05 09:09:37;;;;;;;5.53;2.27;;;;;;;20.74;65.09;102021.13;5016208;28;20424;-74
2022/09/05 09:12:15;;;;;;;4.70;1.80;;;;;;;20.84;64.87;102022.69;5016519;28;20467;-75
2022/09/05 09:14:56;;;;;;;4.87;2.20;;;;;;;20.93;66.55;102023.41;5016281;28;20479;-75
2022/09/05 09:17:40;;;;;;;4.57;2.40;;;;;;;20.98;64.42;102020.47;5016478;28;20839;-75
2022/09/05 09:20:29;;;;;;;5.33;2.67;;;;;;;21.06;63.89;102029.81;5016176;28;20443;-73
2022/09/05 09:23:00;;;;;;;7.17;2.17;;;;;;;21.10;63.58;102026.03;5015204;28;20428;-73
2022/09/05 09:25:30;;;;;;;5.50;1.83;;;;;;;21.16;62.13;102021.13;5015579;28;20440;-73
2022/09/05 09:28:21;;;;;;;5.90;2.70;;;;;;;21.16;62.25;102026.63;5015391;28;20873;-73
2022/09/05 09:30:56;;;;;;;4.60;2.20;;;;;;;21.35;62.75;102032.50;5015485;28;20429;-73
2022/09/05 09:33:37;;;;;;;7.07;2.40;;;;;;;21.44;62.96;102026.91;5015407;28;20436;-73
2022/09/05 09:36:13;;;;;;;6.80;2.07;;;;;;;21.50;61.83;102019.22;5015346;28;20479;-73
2022/09/05 09:38:57;;;;;;;5.93;3.03;;;;;;;21.55;62.38;102024.50;5015480;28;20501;-73
2022/09/05 09:41:44;;;;;;;6.40;2.63;;;;;;;21.70;61.59;102023.88;5015307;28;20428;-73
2022/09/05 09:44:52;;;;;;;4.27;2.20;;;;;;;21.79;61.74;102026.53;5015000;28;20927;-73
2022/09/05 09:47:31;;;;;;;7.83;2.70;;;;;;;21.88;60.55;102030.78;4993457;28;20946;-73
2022/09/05 09:50:16;;;;;;;4.47;2.10;;;;;;;21.96;60.88;102019.97;5015095;28;20432;-74
2022/09/05 09:53:12;;;;;;;4.43;2.10;;;;;;;22.00;59.42;102024.50;5015042;28;20479;-73
2022/09/05 09:56:09;;;;;;;6.13;2.50;;;;;;;22.11;60.69;102016.56;5014946;28;20479;-73
2022/09/05 09:59:05;;;;;;;3.47;1.50;;;;;;;22.19;58.71;102018.44;4987718;28;20475;-74
2022/09/05 10:01:49;;;;;;;4.70;2.47;;;;;;;22.32;59.91;102006.22;5015141;28;20432;-73
2022/09/05 10:04:39;;;;;;;4.90;2.30;;;;;;;22.46;61.48;102008.63;5014930;28;20836;-73
2022/09/05 10:07:36;;;;;;;4.97;2.40;;;;;;;22.57;59.81;102007.00;5014464;28;20833;-73
2022/09/05 10:10:45;;;;;;;5.40;2.10;;;;;;;22.57;58.39;102001.47;5014689;28;20451;-73
2022/09/05 10:13:24;;;;;;;4.90;1.90;;;;;;;22.61;59.69;101994.09;4951799;28;20459;-73
2022/09/05 10:16:31;;;;;;;5.77;2.43;;;;;;;22.60;59.79;101991.69;5014605;28;20468;-71
2022/09/05 10:19:33;;;;;;;4.27;1.77;;;;;;;22.72;58.35;101990.88;5003667;28;20451;-73
2022/09/05 10:22:19;;;;;;;4.37;1.73;;;;;;;22.82;57.85;101999.47;5001530;28;20502;-73
2022/09/05 10:25:08;;;;;;;4.80;2.40;;;;;;;22.95;60.10;101994.72;5014457;28;20436;-72
2022/09/05 10:27:47;;;;;;;4.70;1.90;;;;;;;22.99;55.80;101989.31;5014560;28;20490;-74
2022/09/05 10:30:20;;;;;;;4.70;2.10;;;;;;;23.06;56.75;101998.59;5014414;28;20432;-73
2022/09/05 10:33:16;;;;;;;13.83;2.40;;;;;;;23.19;55.91;101996.56;5014665;28;20428;-74
2022/09/05 10:35:47;;;;;;;6.63;2.00;;;;;;;23.13;53.30;101979.44;5014664;28;20498;-74
2022/09/05 10:38:22;;;;;;;5.50;2.17;;;;;;;23.26;54.82;101980.19;5014257;28;20467;-74
2022/09/05 10:40:50;;;;;;;4.40;2.20;;;;;;;23.35;55.46;101980.84;5014407;28;20775;-75
2022/09/05 10:43:22;;;;;;;3.70;1.77;;;;;;;23.45;55.44;101973.97;5016085;28;20454;-71
2022/09/05 10:46:01;;;;;;;21.07;2.30;;;;;;;23.57;55.00;101967.56;5014694;28;20474;-72
2022/09/05 10:48:36;;;;;;;4.40;1.73;;;;;;;23.72;54.08;101966.00;5015313;28;20551;-71
2022/09/05 10:51:15;;;;;;;6.53;2.03;;;;;;;23.82;52.73;101960.72;5014404;28;20462;-71
2022/09/05 10:53:50;;;;;;;5.00;2.03;;;;;;;23.94;52.54;101965.34;5014549;28;20424;-72
2022/09/05 10:56:23;;;;;;;4.40;1.60;;;;;;;24.12;54.06;101951.94;5014251;28;20517;-71
2022/09/05 10:59:03;;;;;;;5.57;2.30;;;;;;;24.27;52.49;101956.66;5014100;28;20452;-71
2022/09/05 11:01:36;;;;;;;5.10;2.10;;;;;;;24.51;53.02;101952.03;5014119;28;20772;-72
2022/09/05 11:04:12;;;;;;;5.07;2.50;;;;;;;24.65;50.64;101957.88;5013877;28;20436;-72
2022/09/05 11:06:57;;;;;;;4.47;2.10;;;;;;;24.67;49.84;101952.78;5014104;28;20602;-72
2022/09/05 11:09:39;;;;;;;5.30;2.30;;;;;;;24.86;51.42;101944.47;5014411;28;20440;-70
2022/09/05 11:12:19;;;;;;;4.70;2.40;;;;;;;25.01;49.78;101964.13;5014728;28;20945;-71
2022/09/05 11:14:51;;;;;;;3.87;1.77;;;;;;;25.27;49.46;101944.06;5014032;28;20435;-71
2022/09/05 11:17:29;;;;;;;5.20;2.50;;;;;;;25.84;48.41;101950.63;5013970;28;20495;-71
2022/09/05 11:20:08;;;;;;;5.30;1.80;;;;;;;26.56;45.49;101944.97;5014028;28;20432;-72
2022/09/05 11:22:40;;;;;;;5.33;2.10;;;;;;;27.36;44.14;101947.47;5014154;28;20523;-71
2022/09/05 11:25:15;;;;;;;3.80;1.80;;;;;;;28.01;42.63;101957.16;5013434;28;20946;-70
2022/09/05 11:27:45;;;;;;;4.20;1.90;;;;;;;28.59;42.10;101959.91;5013534;28;20459;-71
2022/09/05 11:30:15;;;;;;;5.50;2.00;;;;;;;29.32;40.49;101956.97;5013537;28;20845;-71
2022/09/05 11:33:05;;;;;;;4.30;1.73;;;;;;;29.86;40.22;101963.38;5013792;28;20444;-72
2022/09/05 11:35:35;;;;;;;3.97;2.03;;;;;;;30.15;39.40;101960.59;5014290;28;20858;-71
2022/09/05 11:38:46;;;;;;;4.43;1.83;;;;;;;30.54;38.39;101954.84;5013753;28;20997;-72
2022/09/05 11:42:02;;;;;;;3.70;1.70;;;;;;;31.05;38.43;101952.63;5013940;28;20487;-71
2022/09/05 11:44:46;;;;;;;4.50;1.93;;;;;;;31.21;37.61;101955.75;4996699;28;21037;-72
2022/09/05 11:47:50;;;;;;;3.73;1.50;;;;;;;31.28;36.52;101961.31;5007532;28;20464;-72
2022/09/05 11:50:53;;;;;;;4.90;2.07;;;;;;;31.34;36.41;101951.28;5017361;28;20444;-70
2022/09/05 11:53:55;;;;;;;4.00;1.93;;;;;;;31.51;35.33;101954.31;5017024;28;20428;-71
2022/09/05 11:56:49;;;;;;;4.17;1.80;;;;;;;31.73;36.80;101944.53;5016953;28;20471;-70
2022/09/05 11:59:37;;;;;;;4.00;1.70;;;;;;;31.36;35.71;101950.84;5017019;28;20428;-71
2022/09/05 12:02:25;;;;;;;4.20;2.03;;;;;;;31.51;37.51;101957.13;5015017;28;20462;-71
2022/09/05 12:05:07;;;;;;;3.60;1.60;;;;;;;31.66;36.71;101939.00;5017359;28;20428;-72
2022/09/05 12:07:56;;;;;;;3.83;1.83;;;;;;;31.80;35.52;101943.69;5017076;28;20529;-71
2022/09/05 12:10:36;;;;;;;3.83;1.70;;;;;;;32.14;34.99;101943.75;5016727;28;20972;-72
2022/09/05 12:13:19;;;;;;;3.87;1.40;;;;;;;32.26;35.42;101940.41;5016957;28;20436;-71
2022/09/05 12:15:46;;;;;;;4.70;1.50;;;;;;;32.47;34.86;101935.78;5016813;28;20472;-71
2022/09/05 12:18:26;;;;;;;3.50;1.50;;;;;;;32.49;34.17;101941.75;5016835;28;20464;-70
2022/09/05 12:21:00;;;;;;;4.30;1.90;;;;;;;32.27;33.57;101936.38;5016583;28;20459;-71
2022/09/05 12:23:35;;;;;;;4.63;2.03;;;;;;;32.57;34.76;101932.84;5016831;28;20434;-71
2022/09/05 12:26:09;;;;;;;3.57;1.53;;;;;;;32.71;34.97;101945.09;5016854;28;20432;-71